createdAt,value
2017-10-04T00:00:23.259Z,50.93
2017-10-04T00:01:23.230Z,51.12
2017-10-04T00:02:23.212Z,50.93
2017-10-04T00:03:23.199Z,50.63
2017-10-04T00:04:23.185Z,50.32
2017-10-04T00:05:23.170Z,50.81
2017-10-04T00:06:23.155Z,50.32
2017-10-04T00:07:23.140Z,50.61
2017-10-04T00:08:23.144Z,50.61
2017-10-04T00:09:23.112Z,50.45
2017-10-04T00:10:23.096Z,50.61
2017-10-04T00:11:23.083Z,50.71
2017-10-04T00:12:23.067Z,50.81
2017-10-04T00:13:23.052Z,50.51
2017-10-04T00:14:23.037Z,50.45
2017-10-04T00:15:23.022Z,50.32
2017-10-04T00:16:23.008Z,50.63
2017-10-04T00:17:22.993Z,50.23
2017-10-04T00:18:22.978Z,50.73
2017-10-04T00:19:22.962Z,50.45
2017-10-04T00:20:22.948Z,50.61
2017-10-04T00:21:22.935Z,50.35
2017-10-04T00:22:22.919Z,49.65
2017-10-04T00:23:22.904Z,50.54
2017-10-04T00:24:22.890Z,50.81
2017-10-04T00:25:22.875Z,50.61
2017-10-04T00:26:22.860Z,50.42
2017-10-04T00:27:22.846Z,50.42
2017-10-04T00:28:22.831Z,50.81
2017-10-04T00:29:22.816Z,50.90
2017-10-04T00:30:22.801Z,50.81
2017-10-04T00:31:22.786Z,50.42
2017-10-04T00:32:22.771Z,50.61
2017-10-04T00:33:22.757Z,50.51
2017-10-04T00:34:22.742Z,50.51
2017-10-04T00:35:22.727Z,50.06
2017-10-04T00:36:22.712Z,50.61
2017-10-04T00:37:22.699Z,50.42
2017-10-04T00:38:22.688Z,50.42
2017-10-04T00:39:22.668Z,50.73
2017-10-04T00:40:22.654Z,50.13
2017-10-04T00:41:22.638Z,50.73
2017-10-04T00:42:22.623Z,50.71
2017-10-04T00:43:22.608Z,50.61
2017-10-04T00:44:22.593Z,50.71
2017-10-04T00:45:22.578Z,50.61
2017-10-04T00:46:22.563Z,50.42
2017-10-04T00:47:22.548Z,50.61
2017-10-04T00:48:22.534Z,50.71
2017-10-04T00:49:22.519Z,50.61
2017-10-04T00:50:22.504Z,50.51
2017-10-04T00:51:22.489Z,50.61
2017-10-04T00:52:22.475Z,50.23
2017-10-04T00:53:22.461Z,50.04
2017-10-04T00:54:22.445Z,50.32
2017-10-04T00:55:22.432Z,50.42
2017-10-04T00:56:22.416Z,50.32
2017-10-04T00:57:22.400Z,50.61
2017-10-04T00:58:22.384Z,50.81
2017-10-04T00:59:22.370Z,50.51
2017-10-04T01:00:22.356Z,49.74
2017-10-04T01:01:22.341Z,49.84
2017-10-04T01:02:22.325Z,49.84
2017-10-04T01:03:22.311Z,50.13
2017-10-04T01:04:22.296Z,50.42
2017-10-04T01:05:22.282Z,49.94
2017-10-04T01:06:22.266Z,50.51
2017-10-04T01:07:22.251Z,49.94
2017-10-04T01:08:22.263Z,49.84
2017-10-04T01:09:22.222Z,50.04
2017-10-04T01:10:22.206Z,50.61
2017-10-04T01:11:22.192Z,50.42
2017-10-04T01:12:22.177Z,50.42
2017-10-04T01:13:22.162Z,50.61
2017-10-04T01:14:22.147Z,50.71
2017-10-04T01:15:22.132Z,50.61
2017-10-04T01:16:22.117Z,49.74
2017-10-04T01:17:22.102Z,49.74
2017-10-04T01:18:22.093Z,50.04
2017-10-04T01:19:22.072Z,49.94
2017-10-04T01:20:22.062Z,49.65
2017-10-04T01:21:22.043Z,50.61
2017-10-04T01:22:22.027Z,49.65
2017-10-04T01:23:22.012Z,49.94
2017-10-04T01:24:21.997Z,50.23
2017-10-04T01:25:21.983Z,49.94
2017-10-04T01:26:21.967Z,50.04
2017-10-04T01:27:21.953Z,49.74
2017-10-04T01:28:21.938Z,49.94
2017-10-04T01:29:21.922Z,49.55
2017-10-04T01:30:21.907Z,49.84
2017-10-04T01:31:21.894Z,50.04
2017-10-04T01:32:21.879Z,50.23
2017-10-04T01:33:21.864Z,49.46
2017-10-04T01:34:21.847Z,50.04
2017-10-04T01:35:21.833Z,49.74
2017-10-04T01:36:21.818Z,49.94
2017-10-04T01:37:21.804Z,49.65
2017-10-04T01:38:21.788Z,49.91
2017-10-04T01:39:21.778Z,49.74
2017-10-04T01:40:21.758Z,50.32
2017-10-04T01:41:21.744Z,49.55
2017-10-04T01:42:21.728Z,49.82
2017-10-04T01:43:21.719Z,49.94
2017-10-04T01:44:21.699Z,50.78
2017-10-04T01:45:21.683Z,50.61
2017-10-04T01:46:21.668Z,49.74
2017-10-04T01:47:21.653Z,50.04
2017-10-04T01:48:21.641Z,50.87
2017-10-04T01:49:21.623Z,49.94
2017-10-04T01:50:21.607Z,49.74
2017-10-04T01:51:21.593Z,49.74
2017-10-04T01:52:21.578Z,49.94
2017-10-04T01:53:21.566Z,49.74
2017-10-04T01:54:21.548Z,50.04
2017-10-04T01:55:21.533Z,49.55
2017-10-04T01:56:21.518Z,49.65
2017-10-04T01:57:21.503Z,49.63
2017-10-04T01:58:21.488Z,49.65
2017-10-04T01:59:21.473Z,50.23
2017-10-04T02:00:21.457Z,49.94
2017-10-04T02:01:21.443Z,49.55
2017-10-04T02:02:21.428Z,50.40
2017-10-04T02:03:21.413Z,50.13
2017-10-04T02:04:21.398Z,49.65
2017-10-04T02:05:21.384Z,49.74
2017-10-04T02:06:21.368Z,49.63
2017-10-04T02:07:21.353Z,50.04
2017-10-04T02:08:21.338Z,49.74
2017-10-04T02:09:21.324Z,49.74
2017-10-04T02:10:21.308Z,49.36
2017-10-04T02:11:21.293Z,49.55
2017-10-04T02:12:21.278Z,49.55
2017-10-04T02:13:21.263Z,49.94
2017-10-04T02:14:21.248Z,50.10
2017-10-04T02:15:21.236Z,49.72
2017-10-04T02:16:21.218Z,49.74
2017-10-04T02:17:21.204Z,49.74
2017-10-04T02:18:21.188Z,49.74
2017-10-04T02:19:21.173Z,49.43
2017-10-04T02:20:21.160Z,49.72
2017-10-04T02:21:21.144Z,50.23
2017-10-04T02:22:21.128Z,49.46
2017-10-04T02:23:21.113Z,49.46
2017-10-04T02:24:21.099Z,50.20
2017-10-04T02:25:21.084Z,49.72
2017-10-04T02:26:21.068Z,49.55
2017-10-04T02:27:21.053Z,50.04
2017-10-04T02:28:21.038Z,49.46
2017-10-04T02:29:21.024Z,49.46
2017-10-04T02:30:21.010Z,49.55
2017-10-04T02:31:20.993Z,49.82
2017-10-04T02:32:20.980Z,49.65
2017-10-04T02:33:20.964Z,49.63
2017-10-04T02:34:20.949Z,49.74
2017-10-04T02:35:20.933Z,50.13
2017-10-04T02:36:20.918Z,49.43
2017-10-04T02:37:20.903Z,50.10
2017-10-04T02:38:20.887Z,49.82
2017-10-04T02:39:20.873Z,49.94
2017-10-04T02:40:20.858Z,49.53
2017-10-04T02:41:20.844Z,49.53
2017-10-04T02:42:20.827Z,50.13
2017-10-04T02:43:20.812Z,49.72
2017-10-04T02:44:20.798Z,49.63
2017-10-04T02:45:20.783Z,50.13
2017-10-04T02:46:20.767Z,49.94
2017-10-04T02:47:20.753Z,49.82
2017-10-04T02:48:20.738Z,49.53
2017-10-04T02:49:20.723Z,49.82
2017-10-04T02:50:20.708Z,50.42
2017-10-04T02:51:20.693Z,49.46
2017-10-04T02:52:20.678Z,49.53
2017-10-04T02:53:20.664Z,49.72
2017-10-04T02:54:20.648Z,49.82
2017-10-04T02:55:20.633Z,49.65
2017-10-04T02:56:20.617Z,49.91
2017-10-04T02:57:20.603Z,49.91
2017-10-04T02:58:20.587Z,49.53
2017-10-04T02:59:20.572Z,49.82
2017-10-04T03:00:20.558Z,49.72
2017-10-04T03:01:20.543Z,49.72
2017-10-04T03:02:20.527Z,49.72
2017-10-04T03:03:20.512Z,49.63
2017-10-04T03:04:20.498Z,49.82
2017-10-04T03:05:20.483Z,49.82
2017-10-04T03:06:20.466Z,49.72
2017-10-04T03:07:20.452Z,49.53
2017-10-04T03:08:20.437Z,49.82
2017-10-04T03:09:20.422Z,49.82
2017-10-04T03:10:20.407Z,49.63
2017-10-04T03:11:20.392Z,49.33
2017-10-04T03:12:20.377Z,49.74
2017-10-04T03:13:20.362Z,49.72
2017-10-04T03:14:20.346Z,49.53
2017-10-04T03:15:20.332Z,49.82
2017-10-04T03:16:20.319Z,49.91
2017-10-04T03:17:20.302Z,49.53
2017-10-04T03:18:20.286Z,49.72
2017-10-04T03:19:20.271Z,50.59
2017-10-04T03:20:20.257Z,50.59
2017-10-04T03:21:20.242Z,50.68
2017-10-04T03:22:20.226Z,51.74
2017-10-04T03:23:20.211Z,51.67
2017-10-04T03:24:20.196Z,50.87
2017-10-04T03:25:20.181Z,51.48
2017-10-04T03:26:20.165Z,51.35
2017-10-04T03:27:20.150Z,50.61
2017-10-04T03:28:20.136Z,51.64
2017-10-04T03:29:20.120Z,51.35
2017-10-04T03:30:20.107Z,51.07
2017-10-04T03:32:20.075Z,51.93
2017-10-04T03:33:20.060Z,51.35
2017-10-04T03:34:20.045Z,52.03
2017-10-04T03:35:20.031Z,50.97
2017-10-04T03:38:19.984Z,51.93
2017-10-04T03:39:19.969Z,50.99
2017-10-04T03:40:19.954Z,51.19
2017-10-04T03:41:19.939Z,50.59
2017-10-04T03:42:19.924Z,51.64
2017-10-04T03:43:19.909Z,51.67
2017-10-04T03:44:19.893Z,50.49
2017-10-04T03:45:19.879Z,51.07
2017-10-04T03:46:19.864Z,51.86
2017-10-04T03:47:19.848Z,51.96
2017-10-04T03:48:19.833Z,50.59
2017-10-04T03:49:19.819Z,50.97
2017-10-04T03:50:19.803Z,51.84
2017-10-04T03:52:19.774Z,51.17
2017-10-04T03:53:19.759Z,51.64
2017-10-04T03:54:19.747Z,51.07
2017-10-04T03:55:19.728Z,50.97
2017-10-04T03:56:19.714Z,51.35
2017-10-04T03:57:19.699Z,51.17
2017-10-04T03:58:19.683Z,51.55
2017-10-04T03:59:19.668Z,51.17
2017-10-04T04:00:19.653Z,51.74
2017-10-04T04:01:19.638Z,51.55
2017-10-04T04:02:19.623Z,51.64
2017-10-04T04:03:19.606Z,51.64
2017-10-04T04:04:19.592Z,52.70
2017-10-04T04:05:19.578Z,52.70
2017-10-04T04:06:19.562Z,52.51
2017-10-04T04:07:19.548Z,53.86
2017-10-04T04:08:19.532Z,53.76
2017-10-04T04:09:19.518Z,54.43
2017-10-04T04:10:19.502Z,53.19
2017-10-04T04:11:19.487Z,53.47
2017-10-04T04:12:19.473Z,53.96
2017-10-04T04:13:19.457Z,54.05
2017-10-04T04:14:19.441Z,53.66
2017-10-04T04:15:19.427Z,53.66
2017-10-04T04:16:19.416Z,53.76
2017-10-04T04:17:19.397Z,54.24
2017-10-04T04:18:19.381Z,54.14
2017-10-04T04:19:19.366Z,54.05
2017-10-04T04:20:19.352Z,53.76
2017-10-04T04:21:19.336Z,54.41
2017-10-04T04:22:19.321Z,55.01
2017-10-04T04:23:19.306Z,54.14
2017-10-04T04:24:19.291Z,53.86
2017-10-04T04:25:19.276Z,54.05
2017-10-04T04:26:19.261Z,53.96
2017-10-04T04:27:19.246Z,54.34
2017-10-04T04:28:19.229Z,53.38
2017-10-04T04:29:19.215Z,54.53
2017-10-04T04:30:19.200Z,54.02
2017-10-04T04:31:19.185Z,54.91
2017-10-04T04:32:20.472Z,54.14
2017-10-04T04:33:19.155Z,54.72
2017-10-04T04:34:19.139Z,53.76
2017-10-04T04:35:19.124Z,54.14
2017-10-04T04:36:19.109Z,54.34
2017-10-04T04:37:19.094Z,54.91
2017-10-04T04:38:19.078Z,54.91
2017-10-04T04:39:19.063Z,54.24
2017-10-04T04:40:19.049Z,54.05
2017-10-04T04:41:19.032Z,54.05
2017-10-04T04:42:19.018Z,54.34
2017-10-04T04:43:19.002Z,54.43
2017-10-04T04:44:18.987Z,54.34
2017-10-04T04:45:18.973Z,53.76
2017-10-04T04:46:18.957Z,55.11
2017-10-04T04:47:18.942Z,55.20
2017-10-04T04:48:18.929Z,54.82
2017-10-04T04:49:18.915Z,54.50
2017-10-04T04:50:18.897Z,55.01
2017-10-04T04:51:18.881Z,54.63
2017-10-04T04:52:18.867Z,54.12
2017-10-04T04:53:18.851Z,54.43
2017-10-04T04:54:18.835Z,54.34
2017-10-04T04:55:18.824Z,54.24
2017-10-04T04:56:18.806Z,54.14
2017-10-04T04:57:18.792Z,54.22
2017-10-04T04:58:18.774Z,54.53
2017-10-04T04:59:18.760Z,54.63
2017-10-04T05:00:18.745Z,54.02
2017-10-04T05:01:18.731Z,54.31
2017-10-04T05:02:18.714Z,53.83
2017-10-04T05:03:18.698Z,54.41
2017-10-04T05:04:18.684Z,53.74
2017-10-04T05:05:18.673Z,54.50
2017-10-04T05:06:18.653Z,54.31
2017-10-04T05:07:18.640Z,54.31
2017-10-04T05:08:18.623Z,54.22
2017-10-04T05:09:18.608Z,54.99
2017-10-04T05:10:18.592Z,54.79
2017-10-04T05:11:18.578Z,54.89
2017-10-04T05:12:18.563Z,54.12
2017-10-04T05:13:18.547Z,53.74
2017-10-04T05:14:18.531Z,54.50
2017-10-04T05:15:18.516Z,54.31
2017-10-04T05:16:18.501Z,54.12
2017-10-04T05:17:18.486Z,53.92
2017-10-04T05:18:18.470Z,53.74
2017-10-04T05:19:18.455Z,54.12
2017-10-04T05:20:18.442Z,53.45
2017-10-04T05:21:18.424Z,54.34
2017-10-04T05:22:18.409Z,54.82
2017-10-04T05:23:18.409Z,54.17
2017-10-04T05:24:18.379Z,54.46
2017-10-04T05:25:18.363Z,54.27
2017-10-04T05:26:18.347Z,54.65
2017-10-04T05:27:18.333Z,54.36
2017-10-04T05:28:18.317Z,54.75
2017-10-04T05:29:18.302Z,54.56
2017-10-04T05:30:18.286Z,54.27
2017-10-04T05:31:18.271Z,55.71
2017-10-04T05:32:18.257Z,55.93
2017-10-04T05:33:20.646Z,56.60
2017-10-04T05:34:18.225Z,56.41
2017-10-04T05:35:18.210Z,56.03
2017-10-04T05:36:18.196Z,55.83
2017-10-04T05:37:18.180Z,55.65
2017-10-04T05:38:18.164Z,56.12
2017-10-04T05:39:18.149Z,56.12
2017-10-04T05:40:18.135Z,55.74
2017-10-04T05:41:18.120Z,56.03
2017-10-04T05:42:18.104Z,55.83
2017-10-04T05:43:18.089Z,55.93
2017-10-04T05:44:18.079Z,56.03
2017-10-04T05:45:18.059Z,55.45
2017-10-04T05:46:18.044Z,55.35
2017-10-04T05:47:18.029Z,55.83
2017-10-04T05:48:18.014Z,56.12
2017-10-04T05:49:18.001Z,55.83
2017-10-04T05:50:17.983Z,55.74
2017-10-04T05:51:17.967Z,55.83
2017-10-04T05:52:17.954Z,55.83
2017-10-04T05:53:17.938Z,56.03
2017-10-04T05:54:17.924Z,56.41
2017-10-04T05:55:17.909Z,56.51
2017-10-04T05:56:17.894Z,56.00
2017-10-04T05:57:17.880Z,56.32
2017-10-04T05:58:17.870Z,56.70
2017-10-04T05:59:17.849Z,56.67
2017-10-04T06:00:17.835Z,55.93
2017-10-04T06:01:17.820Z,56.60
2017-10-04T06:02:17.804Z,56.51
2017-10-04T06:03:17.790Z,55.83
2017-10-04T06:04:17.782Z,55.83
2017-10-04T06:05:17.760Z,56.80
2017-10-04T06:06:17.744Z,55.83
2017-10-04T06:07:17.730Z,55.93
2017-10-04T06:08:17.716Z,56.80
2017-10-04T06:09:17.701Z,56.22
2017-10-04T06:10:17.686Z,56.32
2017-10-04T06:11:17.671Z,56.51
2017-10-04T06:12:17.656Z,56.60
2017-10-04T06:13:17.642Z,56.41
2017-10-04T06:14:17.626Z,56.03
2017-10-04T06:15:17.611Z,56.41
2017-10-04T06:16:17.599Z,56.32
2017-10-04T06:17:17.583Z,56.70
2017-10-04T06:18:17.567Z,55.93
2017-10-04T06:19:17.553Z,56.51
2017-10-04T06:20:17.539Z,56.32
2017-10-04T06:21:17.525Z,56.12
2017-10-04T06:22:17.511Z,56.12
2017-10-04T06:23:17.496Z,55.93
2017-10-04T06:24:17.479Z,56.03
2017-10-04T06:25:17.465Z,55.74
2017-10-04T06:26:17.450Z,56.51
2017-10-04T06:27:17.435Z,55.93
2017-10-04T06:28:17.424Z,55.55
2017-10-04T06:29:17.406Z,56.03
2017-10-04T06:30:17.391Z,55.74
2017-10-04T06:31:17.377Z,56.03
2017-10-04T06:32:17.362Z,55.55
2017-10-04T06:33:17.349Z,56.51
2017-10-04T06:34:17.332Z,56.32
2017-10-04T06:35:17.318Z,56.80
2017-10-04T06:36:17.303Z,55.93
2017-10-04T06:37:17.290Z,56.12
2017-10-04T06:38:17.274Z,55.74
2017-10-04T06:39:17.260Z,55.74
2017-10-04T06:40:17.245Z,55.74
2017-10-04T06:41:17.230Z,55.83
2017-10-04T06:42:17.215Z,56.03
2017-10-04T06:43:17.201Z,56.32
2017-10-04T06:44:17.187Z,55.93
2017-10-04T06:45:17.173Z,55.65
2017-10-04T06:46:17.157Z,55.93
2017-10-04T06:47:17.142Z,56.03
2017-10-04T06:48:17.128Z,55.83
2017-10-04T06:49:17.113Z,55.93
2017-10-04T06:50:17.099Z,55.83
2017-10-04T06:51:17.084Z,55.93
2017-10-04T06:52:17.069Z,55.55
2017-10-04T06:53:17.055Z,56.03
2017-10-04T06:54:17.041Z,56.03
2017-10-04T06:55:17.026Z,55.26
2017-10-04T06:56:17.013Z,55.83
2017-10-04T06:57:16.997Z,55.83
2017-10-04T06:58:16.982Z,55.65
2017-10-04T06:59:16.968Z,54.97
2017-10-04T07:00:16.962Z,55.65
2017-10-04T07:01:16.939Z,55.93
2017-10-04T07:02:16.924Z,56.03
2017-10-04T07:03:16.912Z,56.12
2017-10-04T07:04:16.894Z,56.03
2017-10-04T07:05:16.880Z,56.12
2017-10-04T07:06:16.865Z,55.83
2017-10-04T07:07:16.851Z,55.83
2017-10-04T07:08:16.837Z,55.74
2017-10-04T07:09:16.822Z,55.83
2017-10-04T07:10:16.807Z,55.93
2017-10-04T07:11:16.793Z,56.03
2017-10-04T07:12:16.779Z,56.12
2017-10-04T07:13:16.764Z,55.55
2017-10-04T07:14:16.749Z,56.03
2017-10-04T07:15:16.734Z,55.65
2017-10-04T07:16:16.721Z,56.12
2017-10-04T07:17:16.705Z,55.74
2017-10-04T07:18:16.690Z,55.83
2017-10-04T07:19:16.676Z,55.83
2017-10-04T07:20:16.661Z,55.55
2017-10-04T07:21:16.647Z,56.12
2017-10-04T07:22:16.631Z,55.93
2017-10-04T07:23:16.618Z,56.03
2017-10-04T07:24:16.604Z,56.12
2017-10-04T07:25:16.589Z,55.74
2017-10-04T07:26:16.574Z,55.55
2017-10-04T07:27:16.559Z,55.93
2017-10-04T07:28:16.545Z,55.55
2017-10-04T07:29:16.531Z,55.93
2017-10-04T07:30:16.526Z,55.55
2017-10-04T07:31:16.502Z,56.12
2017-10-04T07:32:16.487Z,55.93
2017-10-04T07:33:16.472Z,55.55
2017-10-04T07:34:16.456Z,55.65
2017-10-04T07:35:16.444Z,55.07
2017-10-04T07:36:16.429Z,55.74
2017-10-04T07:37:16.415Z,56.22
2017-10-04T07:38:16.399Z,56.05
2017-10-04T07:39:16.384Z,55.93
2017-10-04T07:40:16.371Z,55.93
2017-10-04T07:41:16.357Z,55.65
2017-10-04T07:42:16.341Z,55.96
2017-10-04T07:43:16.327Z,56.05
2017-10-04T07:44:16.312Z,55.83
2017-10-04T07:45:16.299Z,56.25
2017-10-04T07:46:16.283Z,56.35
2017-10-04T07:47:16.269Z,55.96
2017-10-04T07:48:16.255Z,55.87
2017-10-04T07:49:16.240Z,55.67
2017-10-04T07:50:16.226Z,56.15
2017-10-04T07:51:16.211Z,56.05
2017-10-04T07:52:16.199Z,55.57
2017-10-04T07:53:16.183Z,55.87
2017-10-04T07:54:16.168Z,56.25
2017-10-04T07:55:16.153Z,55.77
2017-10-04T07:56:16.139Z,56.05
2017-10-04T07:57:16.124Z,55.19
2017-10-04T07:58:16.110Z,55.67
2017-10-04T07:59:16.095Z,56.25
2017-10-04T08:00:16.081Z,55.77
2017-10-04T08:01:16.067Z,55.57
2017-10-04T08:02:16.052Z,55.87
2017-10-04T08:03:16.043Z,56.25
2017-10-04T08:04:16.023Z,55.87
2017-10-04T08:05:16.009Z,55.38
2017-10-04T08:06:15.994Z,55.00
2017-10-04T08:07:15.979Z,55.38
2017-10-04T08:08:15.966Z,55.19
2017-10-04T08:09:15.951Z,55.87
2017-10-04T08:10:15.936Z,55.38
2017-10-04T08:11:15.922Z,55.00
2017-10-04T08:12:15.907Z,55.19
2017-10-04T08:13:15.897Z,55.09
2017-10-04T08:14:15.879Z,55.09
2017-10-04T08:15:15.865Z,55.09
2017-10-04T08:16:15.851Z,55.29
2017-10-04T08:17:15.836Z,55.00
2017-10-04T08:18:15.821Z,55.48
2017-10-04T08:19:15.807Z,54.42
2017-10-04T08:20:15.793Z,54.61
2017-10-04T08:21:15.779Z,54.80
2017-10-04T08:22:15.763Z,54.93
2017-10-04T08:23:15.750Z,54.80
2017-10-04T08:24:15.734Z,54.83
2017-10-04T08:25:15.723Z,54.64
2017-10-04T08:26:15.706Z,54.64
2017-10-04T08:27:15.692Z,54.74
2017-10-04T08:28:15.677Z,54.64
2017-10-04T08:29:15.663Z,54.44
2017-10-04T08:30:15.648Z,54.74
2017-10-04T08:31:15.635Z,54.64
2017-10-04T08:32:15.621Z,54.93
2017-10-04T08:33:15.606Z,54.44
2017-10-04T08:34:15.593Z,54.35
2017-10-04T08:35:15.581Z,53.77
2017-10-04T08:36:15.564Z,54.35
2017-10-04T08:37:15.549Z,54.16
2017-10-04T08:38:15.535Z,54.74
2017-10-04T08:39:15.520Z,54.64
2017-10-04T08:40:15.507Z,54.64
2017-10-04T08:41:15.492Z,54.35
2017-10-04T08:42:15.478Z,54.83
2017-10-04T08:43:15.464Z,54.93
2017-10-04T08:44:15.450Z,54.44
2017-10-04T08:45:15.436Z,54.44
2017-10-04T08:46:15.422Z,54.54
2017-10-04T08:47:15.407Z,54.80
2017-10-04T08:48:15.393Z,54.64
2017-10-04T08:49:15.379Z,54.64
2017-10-04T08:50:15.364Z,55.02
2017-10-04T08:51:15.350Z,54.35
2017-10-04T08:52:15.336Z,54.54
2017-10-04T08:53:15.322Z,54.54
2017-10-04T08:54:15.307Z,54.54
2017-10-04T08:55:15.294Z,54.74
2017-10-04T08:56:15.280Z,54.64
2017-10-04T08:57:15.265Z,54.44
2017-10-04T08:58:15.250Z,54.35
2017-10-04T08:59:15.237Z,54.74
2017-10-04T09:00:15.222Z,54.35
2017-10-04T09:01:15.209Z,54.44
2017-10-04T09:02:15.212Z,54.83
2017-10-04T09:03:15.180Z,54.44
2017-10-04T09:04:15.166Z,54.25
2017-10-04T09:05:15.159Z,54.54
2017-10-04T09:06:15.137Z,54.35
2017-10-04T09:07:15.124Z,54.44
2017-10-04T09:08:15.110Z,54.54
2017-10-04T09:09:15.098Z,54.25
2017-10-04T09:10:15.082Z,54.35
2017-10-04T09:11:15.067Z,54.25
2017-10-04T09:12:15.054Z,54.35
2017-10-04T09:13:15.040Z,54.35
2017-10-04T09:14:15.024Z,54.25
2017-10-04T09:15:15.011Z,54.25
2017-10-04T09:16:14.997Z,54.16
2017-10-04T09:17:14.983Z,53.77
2017-10-04T09:18:14.968Z,53.89
2017-10-04T09:19:14.954Z,53.89
2017-10-04T09:20:14.940Z,53.89
2017-10-04T09:21:14.926Z,53.89
2017-10-04T09:22:14.912Z,53.80
2017-10-04T09:23:14.898Z,53.61
2017-10-04T09:24:14.884Z,53.99
2017-10-04T09:25:14.870Z,53.99
2017-10-04T09:26:14.855Z,53.99
2017-10-04T09:27:14.842Z,53.70
2017-10-04T09:28:14.828Z,53.89
2017-10-04T09:29:14.813Z,53.99
2017-10-04T09:30:14.799Z,53.99
2017-10-04T09:31:14.786Z,53.99
2017-10-04T09:32:14.772Z,53.41
2017-10-04T09:33:14.758Z,53.31
2017-10-04T09:34:14.743Z,53.41
2017-10-04T09:35:14.730Z,53.31
2017-10-04T09:36:14.715Z,53.31
2017-10-04T09:37:14.703Z,53.70
2017-10-04T09:38:14.692Z,53.89
2017-10-04T09:39:14.674Z,53.89
2017-10-04T09:40:14.660Z,53.89
2017-10-04T09:41:14.645Z,54.09
2017-10-04T09:42:14.633Z,53.89
2017-10-04T09:43:14.617Z,53.80
2017-10-04T09:44:14.610Z,53.70
2017-10-04T09:45:14.590Z,53.70
2017-10-04T09:46:14.575Z,53.70
2017-10-04T09:47:14.562Z,53.51
2017-10-04T09:48:14.549Z,53.70
2017-10-04T09:49:14.534Z,52.83
2017-10-04T09:50:14.520Z,52.93
2017-10-04T09:51:14.505Z,52.47
2017-10-04T09:52:14.492Z,52.76
2017-10-04T09:53:14.479Z,51.89
2017-10-04T09:54:14.464Z,52.01
2017-10-04T09:55:14.452Z,51.53
2017-10-04T09:56:14.437Z,52.01
2017-10-04T09:57:14.422Z,52.21
2017-10-04T09:58:14.409Z,52.11
2017-10-04T09:59:14.395Z,51.92
2017-10-04T10:00:14.382Z,51.73
2017-10-04T10:01:14.368Z,51.25
2017-10-04T10:02:14.353Z,51.25
2017-10-04T10:03:14.340Z,50.67
2017-10-04T10:04:14.328Z,50.47
2017-10-04T10:05:14.314Z,50.57
2017-10-04T10:06:14.299Z,50.57
2017-10-04T10:07:14.287Z,50.67
2017-10-04T10:08:14.274Z,50.69
2017-10-04T10:09:14.260Z,50.67
2017-10-04T10:10:14.247Z,50.59
2017-10-04T10:11:14.232Z,50.67
2017-10-04T10:12:14.219Z,50.96
2017-10-04T10:13:14.206Z,50.47
2017-10-04T10:14:14.192Z,50.76
2017-10-04T10:15:14.180Z,50.96
2017-10-04T10:16:14.166Z,51.15
2017-10-04T10:17:14.152Z,50.96
2017-10-04T10:18:14.139Z,51.25
2017-10-04T10:19:14.125Z,51.05
2017-10-04T10:20:14.112Z,50.76
2017-10-04T10:21:14.100Z,50.47
2017-10-04T10:22:14.085Z,50.89
2017-10-04T10:23:14.072Z,50.86
2017-10-04T10:24:14.059Z,50.47
2017-10-04T10:25:14.046Z,50.59
2017-10-04T10:26:14.031Z,50.89
2017-10-04T10:27:14.017Z,50.79
2017-10-04T10:28:14.006Z,50.89
2017-10-04T10:29:13.992Z,50.89
2017-10-04T10:30:13.978Z,50.57
2017-10-04T10:31:13.965Z,50.47
2017-10-04T10:32:13.953Z,50.38
2017-10-04T10:33:13.939Z,50.38
2017-10-04T10:34:13.925Z,50.76
2017-10-04T10:35:13.910Z,50.89
2017-10-04T10:36:13.899Z,49.82
2017-10-04T10:37:13.885Z,50.40
2017-10-04T10:38:13.871Z,49.92
2017-10-04T10:39:13.861Z,49.82
2017-10-04T10:40:13.845Z,49.75
2017-10-04T10:41:13.831Z,49.75
2017-10-04T10:42:13.832Z,49.75
2017-10-04T10:43:13.804Z,49.46
2017-10-04T10:44:13.791Z,49.95
2017-10-04T10:45:13.778Z,49.17
2017-10-04T10:46:13.764Z,49.65
2017-10-04T10:47:13.754Z,49.07
2017-10-04T10:48:13.739Z,49.17
2017-10-04T10:49:13.725Z,49.75
2017-10-04T10:50:13.711Z,49.85
2017-10-04T10:51:13.698Z,49.37
2017-10-04T10:52:13.686Z,49.07
2017-10-04T10:53:13.672Z,49.65
2017-10-04T10:54:13.658Z,49.46
2017-10-04T10:55:13.646Z,49.65
2017-10-04T10:56:13.633Z,49.65
2017-10-04T10:57:13.620Z,49.65
2017-10-04T10:58:13.606Z,49.95
2017-10-04T10:59:13.593Z,49.75
2017-10-04T11:00:13.580Z,49.53
2017-10-04T11:01:13.568Z,49.73
2017-10-04T11:02:13.554Z,50.01
2017-10-04T11:03:13.541Z,49.82
2017-10-04T11:04:13.528Z,50.01
2017-10-04T11:05:13.515Z,50.11
2017-10-04T11:06:13.501Z,49.82
2017-10-04T11:07:13.488Z,50.59
2017-10-04T11:08:13.475Z,50.89
2017-10-04T11:09:13.462Z,50.38
2017-10-04T11:10:13.448Z,50.67
2017-10-04T11:11:13.437Z,50.47
2017-10-04T11:12:13.422Z,50.69
2017-10-04T11:13:13.408Z,50.57
2017-10-04T11:14:13.395Z,50.86
2017-10-04T11:15:13.382Z,50.86
2017-10-04T11:16:13.371Z,50.57
2017-10-04T11:17:13.356Z,50.79
2017-10-04T11:18:13.342Z,50.89
2017-10-04T11:19:13.330Z,50.59
2017-10-04T11:20:13.316Z,50.47
2017-10-04T11:21:13.303Z,50.79
2017-10-04T11:22:13.289Z,50.89
2017-10-04T11:23:13.276Z,50.21
2017-10-04T11:24:13.263Z,50.50
2017-10-04T11:25:13.250Z,49.73
2017-10-04T11:26:13.236Z,49.95
2017-10-04T11:27:13.223Z,50.11
2017-10-04T11:28:13.212Z,49.73
2017-10-04T11:29:13.197Z,49.92
2017-10-04T11:30:13.184Z,49.82
2017-10-04T11:31:13.170Z,49.92
2017-10-04T11:32:13.157Z,50.31
2017-10-04T11:33:13.144Z,50.86
2017-10-04T11:34:13.132Z,50.89
2017-10-04T11:35:13.117Z,50.59
2017-10-04T11:36:13.104Z,50.59
2017-10-04T11:37:13.090Z,50.47
2017-10-04T11:38:13.076Z,50.40
2017-10-04T11:39:13.063Z,50.98
2017-10-04T11:40:13.050Z,49.92
2017-10-04T11:41:13.041Z,49.85
2017-10-04T11:42:13.023Z,49.65
2017-10-04T11:43:13.010Z,49.65
2017-10-04T11:44:12.997Z,49.73
2017-10-04T11:45:12.983Z,49.73
2017-10-04T11:46:12.974Z,50.11
2017-10-04T11:47:12.956Z,50.89
2017-10-04T11:48:12.943Z,50.89
2017-10-04T11:49:12.930Z,50.21
2017-10-04T11:50:12.916Z,50.79
2017-10-04T11:51:12.902Z,50.21
2017-10-04T11:52:12.891Z,50.01
2017-10-04T11:53:12.877Z,49.82
2017-10-04T11:54:12.863Z,49.92
2017-10-04T11:55:12.850Z,50.21
2017-10-04T11:56:12.837Z,49.92
2017-10-04T11:57:12.824Z,50.11
2017-10-04T11:58:12.809Z,49.92
2017-10-04T11:59:12.797Z,49.92
2017-10-04T12:00:12.783Z,50.86
2017-10-04T12:01:12.771Z,50.50
2017-10-04T12:02:12.757Z,50.86
2017-10-04T12:03:12.743Z,50.86
2017-10-04T12:04:12.731Z,51.15
2017-10-04T12:05:12.717Z,51.25
2017-10-04T12:06:12.702Z,50.79
2017-10-04T12:07:12.689Z,50.59
2017-10-04T12:08:12.683Z,50.47
2017-10-04T12:09:12.663Z,50.50
2017-10-04T12:10:12.649Z,50.69
2017-10-04T12:11:12.635Z,50.76
2017-10-04T12:12:12.623Z,50.86
2017-10-04T12:13:12.609Z,51.15
2017-10-04T12:14:12.595Z,50.96
2017-10-04T12:15:12.581Z,51.34
2017-10-04T12:16:12.568Z,51.34
2017-10-04T12:17:12.556Z,51.44
2017-10-04T12:18:12.541Z,51.44
2017-10-04T12:19:12.528Z,51.15
2017-10-04T12:20:12.514Z,51.25
2017-10-04T12:21:12.524Z,51.34
2017-10-04T12:22:12.487Z,51.53
2017-10-04T12:23:12.474Z,51.44
2017-10-04T12:24:12.467Z,51.63
2017-10-04T12:25:12.447Z,51.25
2017-10-04T12:26:12.435Z,51.25
2017-10-04T12:27:12.421Z,51.82
2017-10-04T12:28:12.406Z,51.92
2017-10-04T12:29:12.393Z,52.01
2017-10-04T12:30:12.379Z,51.82
2017-10-04T12:31:12.365Z,51.73
2017-10-04T12:32:12.352Z,52.01
2017-10-04T12:33:12.338Z,51.89
2017-10-04T12:34:12.324Z,51.51
2017-10-04T12:35:12.311Z,51.51
2017-10-04T12:36:12.297Z,51.82
2017-10-04T12:37:12.285Z,52.11
2017-10-04T12:38:12.269Z,52.11
2017-10-04T12:39:12.256Z,51.92
2017-10-04T12:40:12.242Z,52.47
2017-10-04T12:41:12.230Z,52.37
2017-10-04T12:42:12.215Z,52.09
2017-10-04T12:43:12.201Z,52.40
2017-10-04T12:44:12.188Z,52.47
2017-10-04T12:45:12.174Z,52.67
2017-10-04T12:46:12.160Z,52.47
2017-10-04T12:47:12.148Z,51.99
2017-10-04T12:48:12.138Z,52.28
2017-10-04T12:49:12.122Z,52.28
2017-10-04T12:50:12.104Z,52.57
2017-10-04T12:51:12.092Z,52.28
2017-10-04T12:52:12.078Z,52.47
2017-10-04T12:53:12.064Z,52.67
2017-10-04T12:54:12.050Z,52.67
2017-10-04T12:55:12.037Z,52.67
2017-10-04T12:56:12.023Z,52.67